Time;durP1;ratioP1;P1;durP2;ratioP2;P2;SDS_P1;SDS_P2;PMS_P1;PMS_P2;Temp;Humidity;BMP_temperature;BMP_pressure;BME280_temperature;BME280_humidity;BME280_pressure;Samples;Min_cycle;Max_cycle;Signal;HPM_P1;HPM_P2
2022/07/09 00:04:27;;;;;;;3.58;0.55;;;;;;;22.79;40.62;102803.94;16121342;19;131642;-60
2022/07/09 00:09:48;;;;;;;1.70;0.50;;;;;;;22.80;40.57;102800.06;16126005;19;129672;-63
2022/07/09 00:15:10;;;;;;;17.45;1.40;;;;;;;22.80;40.66;102802.84;16124137;19;132733;-63
2022/07/09 00:20:32;;;;;;;9.10;0.50;;;;;;;22.79;40.64;102801.16;16121128;19;129654;-63
2022/07/09 00:25:54;;;;;;;5.47;0.45;;;;;;;22.78;40.85;102807.81;16128315;19;130003;-63
2022/07/09 00:31:16;;;;;;;5.00;0.73;;;;;;;22.77;40.32;102800.56;16140655;19;130929;-63
2022/07/09 00:36:38;;;;;;;1.67;0.50;;;;;;;22.76;40.50;102802.47;16141617;19;130532;-63
2022/07/09 00:42:04;;;;;;;5.70;0.60;;;;;;;22.76;40.75;102798.84;16140811;19;129843;-63
2022/07/09 00:47:26;;;;;;;1.13;0.50;;;;;;;22.73;40.46;102797.34;16142464;19;130154;-63
2022/07/09 00:52:48;;;;;;;1.90;0.43;;;;;;;22.74;40.58;102787.88;16139608;19;129686;-63
2022/07/09 00:58:11;;;;;;;2.15;0.45;;;;;;;22.73;40.52;102792.63;16135499;19;129301;-64
2022/07/09 01:03:33;;;;;;;2.92;0.35;;;;;;;22.71;40.82;102792.00;16135278;19;129827;-63
2022/07/09 01:08:55;;;;;;;1.15;0.50;;;;;;;22.70;40.52;102778.28;16138363;19;130489;-63
2022/07/09 01:14:17;;;;;;;2.67;0.70;;;;;;;22.69;40.65;102794.16;16137248;19;132549;-63
2022/07/09 01:19:38;;;;;;;1.67;0.50;;;;;;;22.68;40.77;102784.06;16133126;19;129218;-64
2022/07/09 01:25:02;;;;;;;1.23;0.52;;;;;;;22.67;40.47;102785.16;16136722;19;130049;-63
2022/07/09 01:30:26;;;;;;;0.60;0.45;;;;;;;22.65;40.51;102781.75;16138335;19;129657;-63
2022/07/09 01:35:48;;;;;;;2.88;0.60;;;;;;;22.64;40.45;102773.63;16132449;19;130517;-63
2022/07/09 01:41:10;;;;;;;1.02;0.47;;;;;;;22.63;40.56;102771.91;16132264;19;129546;-64
2022/07/09 01:46:31;;;;;;;1.05;0.45;;;;;;;22.62;40.84;102767.41;16134345;19;129447;-63
2022/07/09 01:51:53;;;;;;;1.77;0.70;;;;;;;22.61;40.40;102768.47;16136474;19;129228;-64
2022/07/09 01:57:18;;;;;;;2.40;0.60;;;;;;;22.59;40.47;102760.34;16130161;19;129926;-63
2022/07/09 02:02:40;;;;;;;0.68;0.40;;;;;;;22.58;40.47;102748.34;16133117;19;129231;-63
2022/07/09 02:08:02;;;;;;;1.40;0.50;;;;;;;22.57;40.54;102751.34;16133338;19;129783;-63
2022/07/09 02:13:24;;;;;;;2.47;0.50;;;;;;;22.55;40.74;102746.03;16132541;19;130782;-63
2022/07/09 02:18:45;;;;;;;1.10;0.65;;;;;;;22.55;40.66;102745.16;16133960;19;130468;-63
2022/07/09 02:24:07;;;;;;;3.13;0.40;;;;;;;22.53;40.71;102734.22;16133231;19;129601;-64
2022/07/09 02:29:29;;;;;;;0.80;0.50;;;;;;;22.52;40.51;102731.69;16133865;19;130403;-64
2022/07/09 02:34:50;;;;;;;1.02;0.60;;;;;;;22.53;40.75;102733.38;16133142;19;130595;-63
2022/07/09 02:40:14;;;;;;;0.45;0.40;;;;;;;22.51;40.28;102727.19;16131232;19;130083;-63
2022/07/09 02:45:36;;;;;;;0.50;0.47;;;;;;;22.50;40.71;102728.25;16132443;19;130139;-63
2022/07/09 02:50:57;;;;;;;0.70;0.50;;;;;;;22.49;40.60;102721.81;16127776;19;130404;-63
2022/07/09 02:56:19;;;;;;;0.80;0.60;;;;;;;22.49;40.30;102715.41;16131982;19;129701;-63
2022/07/09 03:01:41;;;;;;;0.70;0.50;;;;;;;22.48;40.47;102716.47;16127861;19;133471;-63
2022/07/09 03:07:03;;;;;;;0.98;0.60;;;;;;;22.47;40.64;102718.41;16131369;19;130055;-63
2022/07/09 03:12:25;;;;;;;1.15;0.55;;;;;;;22.45;40.43;102723.38;16131018;19;129884;-63
2022/07/09 03:17:48;;;;;;;1.25;0.63;;;;;;;22.46;40.64;102715.84;16130038;19;129671;-63
2022/07/09 03:23:13;;;;;;;0.50;0.40;;;;;;;22.44;40.69;102722.50;16128853;19;129887;-64
2022/07/09 03:28:34;;;;;;;0.93;0.60;;;;;;;22.43;40.51;102722.75;16128924;19;130383;-63
2022/07/09 03:33:57;;;;;;;1.95;0.50;;;;;;;22.41;40.59;102724.91;16123627;19;130360;-63
2022/07/09 03:39:19;;;;;;;1.40;0.32;;;;;;;22.40;40.73;102718.47;16127563;19;130012;-63
2022/07/09 03:44:41;;;;;;;1.35;0.50;;;;;;;22.40;40.47;102712.88;16130402;19;131304;-63
2022/07/09 03:50:04;;;;;;;1.23;0.57;;;;;;;22.39;40.50;102711.22;16129009;19;129469;-63
2022/07/09 03:55:26;;;;;;;1.50;0.35;;;;;;;22.38;40.30;102715.06;16128973;19;129122;-64
2022/07/09 04:00:47;;;;;;;0.75;0.43;;;;;;;22.38;40.71;102711.41;16127790;19;130695;-63
2022/07/09 04:06:09;;;;;;;0.93;0.57;;;;;;;22.38;40.27;102703.06;16143042;19;129677;-63
2022/07/09 04:11:31;;;;;;;0.52;0.47;;;;;;;22.37;40.61;102710.56;16139049;19;129406;-63
2022/07/09 04:16:53;;;;;;;1.48;0.50;;;;;;;22.35;40.74;102696.00;16143880;19;129140;-63
2022/07/09 04:22:15;;;;;;;0.65;0.43;;;;;;;22.36;40.85;102702.41;16140529;19;129113;-63
2022/07/09 04:27:38;;;;;;;1.08;0.50;;;;;;;22.34;40.72;102697.09;16144841;19;129622;-64
2022/07/09 04:33:00;;;;;;;1.00;0.60;;;;;;;22.35;40.25;102700.72;16146259;19;130233;-65
2022/07/09 04:38:23;;;;;;;2.10;0.70;;;;;;;22.34;40.58;102704.59;16142587;19;129961;-65
2022/07/09 04:43:44;;;;;;;1.02;0.50;;;;;;;22.33;40.82;102703.75;16143571;19;130110;-65
2022/07/09 04:49:06;;;;;;;0.73;0.40;;;;;;;22.33;40.63;102700.94;16140727;19;129762;-64
2022/07/09 04:54:28;;;;;;;1.75;0.50;;;;;;;22.33;40.82;102700.94;16142871;19;130861;-65
2022/07/09 04:59:49;;;;;;;0.80;0.50;;;;;;;22.33;40.57;102695.38;16141786;19;129026;-64
2022/07/09 05:05:13;;;;;;;1.40;0.60;;;;;;;22.33;40.56;102687.00;16142641;19;129982;-64
2022/07/09 05:10:35;;;;;;;1.13;0.68;;;;;;;22.33;40.57;102694.53;16148689;19;129921;-66
2022/07/09 05:15:57;;;;;;;0.50;0.50;;;;;;;22.33;40.56;102687.00;16143044;19;130064;-65
2022/07/09 05:21:18;;;;;;;2.35;0.50;;;;;;;22.34;40.90;102687.88;16138755;19;129338;-64
2022/07/09 05:26:40;;;;;;;2.03;0.40;;;;;;;22.34;40.57;102685.09;16139977;19;130200;-65
2022/07/09 05:32:03;;;;;;;2.85;0.50;;;;;;;22.33;40.85;102683.38;16139950;19;130303;-64
2022/07/09 05:37:25;;;;;;;0.60;0.50;;;;;;;22.34;40.65;102687.88;16140215;19;129791;-64
2022/07/09 05:42:46;;;;;;;1.02;0.40;;;;;;;22.33;40.73;102678.66;16135653;19;130058;-63
2022/07/09 05:48:08;;;;;;;1.10;0.60;;;;;;;22.33;40.67;102681.44;16138346;19;130769;-63
2022/07/09 05:53:30;;;;;;;4.53;1.13;;;;;;;22.34;40.52;102685.94;16137300;19;130387;-63
2022/07/09 05:58:52;;;;;;;2.38;0.70;;;;;;;22.33;41.00;102673.06;16136192;19;130183;-63
2022/07/09 06:04:14;;;;;;;3.67;0.80;;;;;;;22.34;40.79;102679.50;16134406;19;130621;-63
2022/07/09 06:09:36;;;;;;;3.92;0.70;;;;;;;22.34;40.92;102677.56;16129434;19;131235;-63
2022/07/09 06:14:58;;;;;;;7.35;1.23;;;;;;;22.35;40.83;102686.78;16135890;19;130288;-63
2022/07/09 06:20:20;;;;;;;1.08;0.50;;;;;;;22.34;40.84;102685.09;16133860;19;129653;-63
2022/07/09 06:25:41;;;;;;;2.55;0.85;;;;;;;22.34;40.84;102680.34;16136668;19;129796;-63
2022/07/09 06:31:04;;;;;;;2.50;0.60;;;;;;;22.34;41.08;102669.19;16134026;19;129140;-63
2022/07/09 06:36:25;;;;;;;7.72;1.05;;;;;;;22.36;40.89;102669.84;16133900;19;131138;-64
2022/07/09 06:41:47;;;;;;;11.05;0.90;;;;;;;22.42;40.72;102671.69;16132446;19;130007;-64
2022/07/09 06:47:10;;;;;;;5.80;1.20;;;;;;;22.47;40.83;102678.53;16136028;19;130208;-64
2022/07/09 06:52:32;;;;;;;6.93;1.00;;;;;;;22.48;40.97;102672.69;16137602;19;129723;-64
2022/07/09 06:57:54;;;;;;;5.97;0.85;;;;;;;22.50;40.96;102676.13;16133262;19;130254;-64
2022/07/09 07:03:16;;;;;;;6.07;0.90;;;;;;;22.50;41.11;102686.44;16121551;19;130090;-64
2022/07/09 07:08:37;;;;;;;3.22;0.82;;;;;;;22.47;41.26;102684.94;16132864;19;130548;-64
2022/07/09 07:13:59;;;;;;;7.45;0.90;;;;;;;22.49;40.93;102698.66;16136254;19;129187;-64
2022/07/09 07:19:21;;;;;;;2.00;0.77;;;;;;;22.48;41.32;102708.13;16137545;19;129313;-65
2022/07/09 07:24:43;;;;;;;3.28;0.98;;;;;;;22.49;41.20;102705.09;16136556;19;130437;-64
2022/07/09 07:30:05;;;;;;;4.68;1.25;;;;;;;22.50;41.43;102698.44;16140062;19;131899;-64
2022/07/09 07:35:27;;;;;;;4.45;0.90;;;;;;;22.51;41.52;102710.44;16139734;19;129010;-64
2022/07/09 07:40:49;;;;;;;3.97;1.17;;;;;;;22.54;41.39;102696.91;16152298;19;130626;-64
2022/07/09 07:46:11;;;;;;;3.17;0.90;;;;;;;22.56;41.17;102691.06;16153587;19;130050;-64
2022/07/09 07:51:33;;;;;;;2.47;0.80;;;;;;;22.58;41.47;102691.69;16151162;19;129009;-64
2022/07/09 07:56:54;;;;;;;3.88;1.00;;;;;;;22.60;41.52;102683.97;16150155;19;130430;-64
2022/07/09 08:02:16;;;;;;;4.43;0.88;;;;;;;22.62;41.40;102678.13;16145618;19;129220;-64
2022/07/09 08:07:38;;;;;;;1.48;0.80;;;;;;;22.63;41.58;102685.44;16150555;19;129110;-65
2022/07/09 08:13:00;;;;;;;5.07;0.85;;;;;;;22.63;41.41;102682.63;16149869;19;130806;-64
2022/07/09 08:18:21;;;;;;;3.97;0.93;;;;;;;22.62;41.53;102692.97;16146643;19;129646;-64
2022/07/09 08:23:56;;;;;;;5.95;1.08;;;;;;;22.62;41.57;102687.38;16143890;19;129339;-65
2022/07/09 08:29:18;;;;;;;3.35;0.90;;;;;;;22.62;42.06;102684.59;16150886;19;129481;-64
2022/07/09 08:34:40;;;;;;;5.18;0.80;;;;;;;22.65;41.78;102678.53;16147869;19;130168;-64
2022/07/09 08:40:02;;;;;;;1.50;0.82;;;;;;;22.70;41.77;102663.91;16143567;19;129548;-65
2022/07/09 08:45:29;;;;;;;4.55;1.13;;;;;;;22.76;42.02;102670.50;16145590;19;129643;-65
2022/07/09 08:50:51;;;;;;;2.42;1.08;;;;;;;22.79;41.73;102667.22;16142183;19;129208;-65
2022/07/09 08:56:13;;;;;;;5.03;1.33;;;;;;;22.81;41.41;102663.13;16141928;19;129747;-65
2022/07/09 09:01:35;;;;;;;4.07;1.60;;;;;;;22.81;41.78;102667.84;16140125;19;129267;-65
2022/07/09 09:06:57;;;;;;;6.30;1.90;;;;;;;22.81;42.23;102662.25;16144552;19;128860;-64
2022/07/09 09:12:27;;;;;;;6.13;1.42;;;;;;;22.83;41.98;102657.31;16141332;19;129773;-65
2022/07/09 09:17:49;;;;;;;6.15;1.63;;;;;;;22.82;42.17;102648.09;16144369;19;129787;-66
2022/07/09 09:23:16;;;;;;;13.60;2.25;;;;;;;22.85;42.36;102641.19;16134898;19;130688;-58
2022/07/09 09:28:50;;;;;;;8.77;2.58;;;;;;;22.86;42.06;102638.16;16144657;19;129389;-61
2022/07/09 09:34:16;;;;;;;8.25;2.40;;;;;;;22.88;42.51;102640.72;16141944;19;129733;-61
2022/07/09 09:39:37;;;;;;;6.82;2.30;;;;;;;22.91;42.42;102645.84;16141490;19;130045;-62
2022/07/09 09:44:59;;;;;;;5.45;1.90;;;;;;;22.94;42.46;102633.38;16142917;19;129397;-62
2022/07/09 09:50:25;;;;;;;8.82;2.45;;;;;;;22.93;42.50;102640.06;16140517;19;129879;-63
2022/07/09 09:55:48;;;;;;;6.10;1.80;;;;;;;22.92;42.72;102643.94;16143343;19;128861;-64
2022/07/09 10:01:18;;;;;;;6.82;2.53;;;;;;;22.94;42.80;102634.22;16137068;19;129428;-66
2022/07/09 10:06:40;;;;;;;5.80;2.40;;;;;;;22.97;42.92;102638.47;16135891;19;130603;-62
2022/07/09 10:12:02;;;;;;;8.18;2.30;;;;;;;22.99;42.97;102642.75;16134606;19;128950;-60
2022/07/09 10:17:26;;;;;;;4.88;2.33;;;;;;;22.99;43.16;102642.75;16134948;19;129659;-63
2022/07/09 10:22:48;;;;;;;5.63;2.50;;;;;;;23.02;42.94;102638.63;16130799;19;129176;-63
2022/07/09 10:28:17;;;;;;;5.93;2.30;;;;;;;23.05;43.42;102625.06;16137755;19;129126;-61
2022/07/09 10:33:48;;;;;;;6.47;2.47;;;;;;;23.07;43.50;102632.34;16139115;19;129529;-64
2022/07/09 10:39:13;;;;;;;6.38;2.33;;;;;;;23.09;43.89;102641.34;16137043;19;130021;-58
2022/07/09 10:44:37;;;;;;;10.00;5.17;;;;;;;23.03;44.29;102626.38;16133207;19;129100;-61
2022/07/09 10:50:03;;;;;;;11.50;4.63;;;;;;;23.01;44.32;102640.59;16139948;19;129658;-70
2022/07/09 10:55:27;;;;;;;10.95;3.90;;;;;;;23.03;44.37;102638.38;16137609;19;129569;-65
2022/07/09 11:00:57;;;;;;;6.43;3.13;;;;;;;23.05;44.72;102624.22;16135315;19;129504;-61
2022/07/09 11:06:19;;;;;;;6.63;3.22;;;;;;;23.04;44.18;102644.84;16135935;19;129696;-62
2022/07/09 11:11:44;;;;;;;7.03;2.90;;;;;;;23.05;44.68;102641.81;16136226;19;131747;-63
2022/07/09 11:17:06;;;;;;;5.75;2.75;;;;;;;23.06;44.23;102642.66;16137414;19;129664;-66
2022/07/09 11:22:28;;;;;;;7.70;2.42;;;;;;;23.05;44.31;102647.38;16132702;19;130554;-64
2022/07/09 11:27:50;;;;;;;5.70;2.00;;;;;;;23.03;44.31;102641.19;16136671;19;129890;-62
2022/07/09 11:33:12;;;;;;;5.00;1.90;;;;;;;23.04;44.21;102640.09;16136275;19;129813;-67
2022/07/09 11:38:34;;;;;;;3.15;1.75;;;;;;;23.07;43.80;102640.72;16136772;19;129523;-63
2022/07/09 11:43:57;;;;;;;3.58;1.70;;;;;;;23.05;43.70;102635.38;16130693;19;129114;-66
2022/07/09 11:49:18;;;;;;;3.60;1.58;;;;;;;23.05;43.55;102641.81;16134871;19;129327;-65
2022/07/09 11:54:40;;;;;;;3.38;1.30;;;;;;;23.09;43.53;102636.59;16135599;19;129730;-66
2022/07/09 12:00:24;;;;;;;4.38;1.10;;;;;;;23.12;43.21;102638.91;16128266;19;130030;-66
2022/07/09 12:05:50;;;;;;;2.35;1.35;;;;;;;23.13;43.49;102648.16;16130741;19;129157;-63
2022/07/09 12:11:12;;;;;;;4.78;0.90;;;;;;;23.11;43.02;102651.16;16133179;19;129236;-70
2022/07/09 12:16:34;;;;;;;2.97;1.10;;;;;;;23.13;42.98;102653.75;16134378;19;131520;-67
2022/07/09 12:21:56;;;;;;;1.73;0.80;;;;;;;23.12;42.58;102646.47;16135349;19;130207;-66
2022/07/09 12:27:20;;;;;;;2.10;0.75;;;;;;;23.13;42.73;102642.59;16145143;19;129094;-62
2022/07/09 12:32:44;;;;;;;1.55;0.70;;;;;;;23.15;42.60;102645.97;16148138;19;130682;-65
2022/07/09 12:38:07;;;;;;;1.20;0.50;;;;;;;23.15;42.56;102645.97;16141628;19;129632;-62
2022/07/09 12:43:29;;;;;;;2.22;0.77;;;;;;;23.15;42.52;102657.13;16137896;19;130150;-65
2022/07/09 12:48:51;;;;;;;1.60;0.60;;;;;;;23.12;42.71;102646.47;16139685;19;133137;-63
2022/07/09 12:54:12;;;;;;;1.45;0.55;;;;;;;23.13;42.80;102648.16;16145011;19;129610;-60
2022/07/09 12:59:34;;;;;;;4.80;0.68;;;;;;;23.10;42.65;102634.66;16143621;19;130426;-66
2022/07/09 13:04:56;;;;;;;10.23;1.55;;;;;;;23.12;42.40;102652.88;16140910;19;131636;-62
2022/07/09 13:10:18;;;;;;;11.95;1.52;;;;;;;23.16;42.40;102642.09;16147125;19;130686;-66
2022/07/09 13:15:39;;;;;;;14.18;1.65;;;;;;;23.18;42.36;102651.09;16142105;19;129816;-61
2022/07/09 13:21:01;;;;;;;14.85;1.20;;;;;;;23.18;41.98;102651.09;16144734;19;129804;-65
2022/07/09 13:26:23;;;;;;;6.45;0.93;;;;;;;23.16;41.87;102647.66;16146050;19;129471;-66
2022/07/09 13:31:45;;;;;;;3.67;1.00;;;;;;;23.15;41.49;102641.25;16145335;19;129469;-58
2022/07/09 13:37:07;;;;;;;5.47;1.13;;;;;;;23.17;41.36;102644.66;16141942;19;129419;-61
2022/07/09 13:42:29;;;;;;;7.55;1.30;;;;;;;23.17;41.21;102643.78;16141630;19;131127;-63
2022/07/09 13:47:50;;;;;;;8.90;0.90;;;;;;;23.20;40.99;102651.72;16142274;19;129788;-61
2022/07/09 13:53:12;;;;;;;5.60;0.82;;;;;;;23.19;41.13;102652.78;16142889;19;129314;-64
2022/07/09 13:58:34;;;;;;;7.10;1.00;;;;;;;23.18;40.87;102638.00;16140530;19;129697;-64
2022/07/09 14:03:56;;;;;;;5.97;1.05;;;;;;;23.18;40.36;102645.50;16134150;19;130124;-63
2022/07/09 14:09:20;;;;;;;6.53;1.30;;;;;;;23.16;40.45;102659.72;16138005;19;129474;-63
2022/07/09 14:14:42;;;;;;;3.58;0.63;;;;;;;23.15;40.62;102638.47;16140149;19;129681;-63
2022/07/09 14:20:06;;;;;;;5.50;0.90;;;;;;;23.15;40.14;102629.22;16137253;19;130472;-64
2022/07/09 14:25:28;;;;;;;7.00;0.80;;;;;;;23.13;40.16;102637.00;16128381;19;130238;-62
2022/07/09 14:30:49;;;;;;;11.57;1.10;;;;;;;23.12;40.11;102630.53;16132121;19;130094;-62
2022/07/09 14:36:11;;;;;;;12.88;1.58;;;;;;;23.12;40.14;102635.28;16138507;19;129499;-61
2022/07/09 14:41:35;;;;;;;6.00;0.80;;;;;;;23.13;39.94;102653.75;16138545;19;129710;-60
2022/07/09 14:46:59;;;;;;;14.20;1.48;;;;;;;23.15;40.11;102644.03;16142115;19;132172;-62
2022/07/09 14:52:21;;;;;;;9.90;1.30;;;;;;;23.16;39.73;102642.09;16136947;19;129766;-62
2022/07/09 14:57:43;;;;;;;9.88;1.38;;;;;;;23.16;40.20;102636.50;16140338;19;130994;-62
2022/07/09 15:03:05;;;;;;;9.15;1.15;;;;;;;23.13;40.12;102629.47;16134291;19;129527;-62
2022/07/09 15:08:27;;;;;;;7.07;1.33;;;;;;;23.11;39.52;102631.63;16139922;19;129397;-62
2022/07/09 15:13:49;;;;;;;11.18;1.00;;;;;;;23.10;40.07;102638.31;16134022;19;130641;-62
2022/07/09 15:19:11;;;;;;;12.55;1.30;;;;;;;23.09;39.68;102627.38;16140462;19;129421;-63
2022/07/09 15:24:32;;;;;;;5.10;0.90;;;;;;;23.08;39.77;102634.03;16133583;19;129578;-62
2022/07/09 15:29:54;;;;;;;4.15;1.30;;;;;;;23.07;39.53;102629.53;16137488;19;129286;-62
2022/07/09 15:35:16;;;;;;;5.47;1.17;;;;;;;23.05;39.81;102619.47;16136705;19;129482;-62
2022/07/09 15:40:38;;;;;;;3.97;0.80;;;;;;;23.04;39.43;102625.31;16136942;19;129776;-62
2022/07/09 15:46:00;;;;;;;5.85;1.17;;;;;;;23.04;39.74;102614.13;16134547;19;131532;-62
2022/07/09 15:51:21;;;;;;;3.20;1.08;;;;;;;23.04;39.32;102612.19;16139171;19;131538;-62
2022/07/09 15:56:43;;;;;;;8.02;1.20;;;;;;;23.04;39.34;102612.19;16140041;19;129513;-62
2022/07/09 16:02:05;;;;;;;4.13;0.85;;;;;;;23.02;39.35;102614.34;16149836;19;129400;-64
2022/07/09 16:07:27;;;;;;;2.75;0.88;;;;;;;23.02;39.28;102603.19;16147514;19;129263;-64
2022/07/09 16:12:52;;;;;;;4.30;0.90;;;;;;;23.01;39.69;102598.72;16151394;19;128957;-63
2022/07/09 16:18:14;;;;;;;5.47;0.90;;;;;;;23.02;39.27;102596.75;16151732;19;130117;-63
2022/07/09 16:23:36;;;;;;;2.03;0.90;;;;;;;23.00;39.30;102597.00;16147842;19;130226;-64
2022/07/09 16:28:57;;;;;;;4.93;1.08;;;;;;;23.01;39.15;102589.47;16146325;19;130485;-63
2022/07/09 16:34:19;;;;;;;5.15;1.10;;;;;;;23.01;39.12;102595.94;16150339;19;129170;-63
2022/07/09 16:39:41;;;;;;;3.97;0.90;;;;;;;23.02;39.32;102580.84;16152041;19;129498;-64
2022/07/09 16:45:03;;;;;;;5.28;1.13;;;;;;;23.02;38.80;102583.66;16151141;19;129516;-62
2022/07/09 16:50:25;;;;;;;3.67;1.05;;;;;;;23.05;38.97;102579.56;16144593;19;129380;-63
2022/07/09 16:55:46;;;;;;;3.80;0.82;;;;;;;23.07;39.17;102582.09;16151451;19;129294;-63
2022/07/09 17:01:08;;;;;;;3.47;0.85;;;;;;;23.05;39.33;102585.97;16216624;19;129278;-62
2022/07/09 17:06:30;;;;;;;2.50;0.88;;;;;;;23.05;39.49;102579.56;16225935;19;127607;-62
2022/07/09 17:11:52;;;;;;;3.17;0.85;;;;;;;23.04;38.84;102578.69;16227813;19;128175;-62
2022/07/09 17:17:13;;;;;;;2.72;0.80;;;;;;;23.05;38.94;102572.00;16228578;19;127985;-62
2022/07/09 17:22:36;;;;;;;2.88;0.90;;;;;;;23.04;38.90;102578.69;16228963;19;128111;-63
2022/07/09 17:27:57;;;;;;;4.00;1.13;;;;;;;23.00;38.96;102583.06;16229765;19;128708;-62
2022/07/09 17:33:19;;;;;;;4.35;1.05;;;;;;;22.98;39.09;102582.44;16227332;19;128817;-62
2022/07/09 17:38:41;;;;;;;2.45;0.88;;;;;;;22.98;39.54;102589.94;16224825;19;129307;-62
2022/07/09 17:44:03;;;;;;;2.83;0.77;;;;;;;22.94;39.37;102589.56;16222652;19;129246;-63
2022/07/09 17:49:24;;;;;;;4.50;0.88;;;;;;;22.92;39.50;102602.91;16224386;19;127626;-63
2022/07/09 17:54:46;;;;;;;2.85;0.80;;;;;;;22.92;39.07;102607.66;16228179;19;129283;-62
2022/07/09 18:00:10;;;;;;;1.75;0.82;;;;;;;22.89;39.27;102604.19;16143204;19;128904;-62
2022/07/09 18:05:32;;;;;;;3.35;1.00;;;;;;;22.88;39.16;102618.41;16140388;19;132473;-62
2022/07/09 18:10:58;;;;;;;2.97;0.70;;;;;;;22.87;39.07;102625.06;16144521;19;129542;-62
2022/07/09 18:16:20;;;;;;;3.03;0.88;;;;;;;22.85;39.13;102624.44;16143882;19;129408;-63
2022/07/09 18:21:41;;;;;;;4.90;1.13;;;;;;;22.83;39.02;102632.19;16140401;19;129154;-62
2022/07/09 18:27:03;;;;;;;4.10;1.05;;;;;;;22.83;39.11;102638.59;16142858;19;128962;-62
2022/07/09 18:32:25;;;;;;;3.67;0.98;;;;;;;22.82;38.78;102636.94;16144112;19;128801;-62
2022/07/09 18:37:47;;;;;;;2.50;0.70;;;;;;;22.81;39.09;102632.44;16137704;19;130169;-62
2022/07/09 18:43:09;;;;;;;2.92;0.90;;;;;;;22.80;38.69;102638.22;16140155;19;129225;-62
2022/07/09 18:48:30;;;;;;;2.85;0.65;;;;;;;22.80;38.89;102649.38;16140390;19;129488;-62
2022/07/09 18:53:52;;;;;;;3.33;0.90;;;;;;;22.79;38.71;102647.69;16143125;19;131624;-62
2022/07/09 18:59:15;;;;;;;3.50;0.90;;;;;;;22.78;38.99;102654.34;16140858;19;129130;-62
2022/07/09 19:04:38;;;;;;;3.00;1.00;;;;;;;22.76;39.02;102659.34;16141882;19;131563;-62
2022/07/09 19:10:00;;;;;;;3.80;1.05;;;;;;;22.76;38.55;102665.75;16142416;19;129679;-62
2022/07/09 19:15:22;;;;;;;3.70;1.02;;;;;;;22.72;38.66;102665.38;16142061;19;129432;-61
2022/07/09 19:20:44;;;;;;;1.85;0.70;;;;;;;22.71;38.82;102674.81;16142623;19;129528;-61
2022/07/09 19:26:05;;;;;;;2.75;0.63;;;;;;;22.71;38.67;102679.53;16136681;19;128951;-62
2022/07/09 19:37:08;;;;;;;6.28;0.80;;;;;;;22.65;38.38;102684.09;16154975;19;129029;-61
2022/07/09 19:42:29;;;;;;;2.50;0.88;;;;;;;22.65;38.43;102698.03;16150285;19;129126;-62
2022/07/09 19:47:58;;;;;;;3.00;0.82;;;;;;;22.64;38.54;102699.16;16150376;19;128948;-62
2022/07/09 19:53:19;;;;;;;3.28;0.90;;;;;;;22.63;38.47;102705.81;16152643;19;131658;-62
2022/07/09 19:58:41;;;;;;;2.78;0.57;;;;;;;22.62;38.42;102715.28;16150837;19;129029;-61
2022/07/09 20:04:04;;;;;;;1.95;0.88;;;;;;;22.59;38.47;102716.56;16149432;19;129384;-62
2022/07/09 20:09:26;;;;;;;3.47;0.90;;;;;;;22.59;38.65;102719.34;16150486;19;128998;-62
2022/07/09 20:14:47;;;;;;;7.47;1.05;;;;;;;22.59;38.66;102736.09;16147410;19;129206;-61
2022/07/09 20:20:10;;;;;;;10.85;1.50;;;;;;;22.62;38.75;102743.16;16145791;19;129872;-62
2022/07/09 20:25:32;;;;;;;6.22;1.20;;;;;;;22.64;38.51;102752.16;16146388;19;129007;-62
2022/07/09 20:30:53;;;;;;;12.88;1.45;;;;;;;22.65;38.38;102764.16;16149475;19;129268;-61
2022/07/09 20:36:15;;;;;;;6.25;0.70;;;;;;;22.65;38.52;102755.78;16149937;19;129533;-61
2022/07/09 20:41:37;;;;;;;2.95;0.95;;;;;;;22.64;38.90;102752.16;16148166;19;129535;-62
2022/07/09 20:46:59;;;;;;;5.97;1.33;;;;;;;22.65;38.35;102748.25;16144209;19;129384;-62
2022/07/09 20:52:23;;;;;;;6.28;1.27;;;;;;;22.64;38.96;102757.75;16148180;19;129023;-62
2022/07/09 20:57:45;;;;;;;7.15;1.33;;;;;;;22.64;38.71;102757.75;16146360;19;129813;-62
2022/07/09 21:03:07;;;;;;;4.57;0.88;;;;;;;22.64;38.57;102763.31;16138421;19;129875;-62
2022/07/09 21:08:29;;;;;;;4.13;0.85;;;;;;;22.63;38.44;102750.47;16146293;19;130238;-62
2022/07/09 21:13:50;;;;;;;5.05;1.13;;;;;;;22.62;38.44;102762.69;16149240;19;129551;-62
2022/07/09 21:19:12;;;;;;;6.10;1.20;;;;;;;22.60;38.47;102759.28;16144773;19;129040;-62
2022/07/09 21:24:34;;;;;;;3.70;0.75;;;;;;;22.59;38.45;102765.94;16143583;19;129875;-62
2022/07/09 21:29:55;;;;;;;9.00;1.10;;;;;;;22.57;38.48;102766.19;16144995;19;130006;-62
2022/07/09 21:35:17;;;;;;;5.47;1.02;;;;;;;22.55;38.49;102759.09;16142171;19;130332;-62
2022/07/09 21:40:39;;;;;;;4.63;0.68;;;;;;;22.56;38.68;102758.00;16140368;19;130464;-62
2022/07/09 21:46:01;;;;;;;3.25;0.70;;;;;;;22.54;38.36;102757.38;16138559;19;129471;-62
2022/07/09 21:51:22;;;;;;;4.90;1.20;;;;;;;22.52;38.49;102757.63;16134467;19;129572;-62
2022/07/09 21:56:44;;;;;;;2.58;0.70;;;;;;;22.51;38.67;102764.28;16135112;19;129176;-61
2022/07/09 22:02:06;;;;;;;6.35;1.15;;;;;;;22.50;38.42;102762.56;16131640;19;129096;-62
2022/07/09 22:07:28;;;;;;;10.07;1.02;;;;;;;22.50;38.47;102762.56;16130682;19;130075;-61
2022/07/09 22:12:50;;;;;;;5.82;0.82;;;;;;;22.48;38.27;102748.00;16140922;19;129517;-62
2022/07/09 22:18:12;;;;;;;3.20;0.80;;;;;;;22.48;38.06;102738.78;16132870;19;130666;-62
2022/07/09 22:23:34;;;;;;;5.00;1.00;;;;;;;22.46;38.61;102733.47;16133507;19;130231;-61
2022/07/09 22:28:56;;;;;;;5.93;0.90;;;;;;;22.47;38.15;102737.09;16132467;19;130660;-61
2022/07/09 22:34:17;;;;;;;3.10;0.80;;;;;;;22.46;38.34;102736.25;16129589;19;129625;-62
2022/07/09 22:39:39;;;;;;;5.13;1.20;;;;;;;22.45;38.22;102734.53;16133795;19;131463;-61
2022/07/09 22:45:01;;;;;;;7.30;1.42;;;;;;;22.46;38.11;102741.81;16127614;19;130351;-61
2022/07/09 22:50:24;;;;;;;2.20;0.77;;;;;;;22.46;38.59;102743.75;16126987;19;129870;-62
2022/07/09 22:55:45;;;;;;;2.15;0.80;;;;;;;22.44;38.29;102744.81;16131101;19;130282;-61
2022/07/09 23:01:07;;;;;;;6.70;0.88;;;;;;;22.46;38.49;102746.53;16124860;19;129967;-61
2022/07/09 23:06:29;;;;;;;7.80;1.30;;;;;;;22.44;38.53;102747.59;16124494;19;130425;-61
2022/07/09 23:11:51;;;;;;;5.68;0.88;;;;;;;22.44;38.41;102750.41;16127152;19;131654;-61
2022/07/09 23:17:12;;;;;;;2.72;0.80;;;;;;;22.46;38.83;102749.31;16137360;19;129475;-61
2022/07/09 23:22:34;;;;;;;4.80;0.77;;;;;;;22.44;38.56;102744.81;16132676;19;130251;-62
2022/07/09 23:27:56;;;;;;;2.50;0.90;;;;;;;22.44;38.68;102747.59;16122306;19;130091;-61
2022/07/09 23:33:18;;;;;;;2.78;0.55;;;;;;;22.45;38.39;102742.91;16127799;19;129843;-61
2022/07/09 23:38:40;;;;;;;2.90;0.77;;;;;;;22.44;38.54;102735.63;16128334;19;131666;-61
2022/07/09 23:44:02;;;;;;;1.80;0.70;;;;;;;22.43;38.42;102737.53;16125540;19;130513;-61
2022/07/09 23:49:24;;;;;;;3.25;0.85;;;;;;;22.43;39.00;102740.31;16123277;19;130078;-62
2022/07/09 23:54:46;;;;;;;3.40;0.60;;;;;;;22.43;38.69;102731.97;16126371;19;129713;-61
